Time;durP1;ratioP1;P1;durP2;ratioP2;P2;SDS_P1;SDS_P2;PMS_P1;PMS_P2;Temp;Humidity;BMP_temperature;BMP_pressure;BME280_temperature;BME280_humidity;BME280_pressure;Samples;Min_cycle;Max_cycle;Signal;HPM_P1;HPM_P2
2023/08/19 00:01:05;;;;;;;4.78;4.38;;;;;;;;;;5032970;28;20436;-76
2023/08/19 00:03:32;;;;;;;5.05;4.65;;;;;;;;;;5032657;28;20045;-76
2023/08/19 00:06:12;;;;;;;4.90;4.50;;;27.10;73.80;;;;;;5032847;28;20087;-76
2023/08/19 00:08:39;;;;;;;4.28;3.95;;;;;;;;;;5032455;28;20037;-76
2023/08/19 00:11:05;;;;;;;4.18;3.88;;;;;;;;;;5032727;28;20115;-76
2023/08/19 00:13:32;;;;;;;4.40;4.10;;;;;;;;;;5032649;28;20033;-76
2023/08/19 00:15:58;;;;;;;4.30;4.00;;;;;;;;;;5032578;28;20045;-76
2023/08/19 00:18:25;;;;;;;4.97;4.57;;;;;;;;;;5032392;28;20040;-76
2023/08/19 00:20:51;;;;;;;4.30;3.92;;;;;;;;;;5032055;28;20033;-76
2023/08/19 00:23:18;;;;;;;5.10;4.68;;;;;;;;;;5032146;28;20037;-76
2023/08/19 00:25:44;;;;;;;4.35;4.05;;;;;;;;;;5032409;28;20454;-76
2023/08/19 00:28:10;;;;;;;4.63;4.22;;;;;;;;;;5032117;28;20043;-76
2023/08/19 00:30:36;;;;;;;3.85;3.55;;;;;;;;;;5032272;28;20559;-76
2023/08/19 00:33:03;;;;;;;4.20;3.90;;;;;;;;;;5032152;28;20044;-76
2023/08/19 00:35:31;;;;;;;4.68;4.28;;;;;;;;;;5031912;28;20044;-76
2023/08/19 00:37:58;;;;;;;4.15;3.85;;;;;;;;;;5031752;28;20053;-76
2023/08/19 00:40:25;;;;;;;4.05;3.75;;;;;;;;;;5032230;28;20041;-76
2023/08/19 00:42:51;;;;;;;4.07;3.78;;;;;;;;;;5018784;28;20046;-76
2023/08/19 00:45:18;;;;;;;3.70;3.40;;;;;;;;;;5012483;28;20037;-76
2023/08/19 00:47:45;;;;;;;4.30;4.00;;;;;;;;;;5012276;28;20065;-76
2023/08/19 00:50:12;;;;;;;4.45;4.10;;;;;;;;;;5013078;28;20453;-76
2023/08/19 00:52:39;;;;;;;4.10;3.80;;;27.00;78.00;;;;;;5012220;28;20042;-76
2023/08/19 00:55:06;;;;;;;4.03;3.72;;;;;;;;;;5012104;28;20040;-76
2023/08/19 00:57:34;;;;;;;4.13;3.83;;;26.90;79.30;;;;;;5011929;28;20041;-76
2023/08/19 01:00:01;;;;;;;4.80;4.40;;;;;;;;;;5012051;28;20072;-76
2023/08/19 01:02:28;;;;;;;4.60;4.20;;;;;;;;;;5012140;28;20089;-76
2023/08/19 01:04:54;;;;;;;4.47;4.07;;;;;;;;;;5012240;28;20448;-76
2023/08/19 01:07:31;;;;;;;4.28;3.97;;;26.90;73.50;;;;;;5012079;28;20037;-76
2023/08/19 01:10:07;;;;;;;4.45;4.07;;;26.90;73.30;;;;;;5011861;28;20035;-76
2023/08/19 01:12:42;;;;;;;4.35;3.95;;;26.90;74.30;;;;;;5011870;28;20041;-76
2023/08/19 01:15:18;;;;;;;4.38;4.07;;;26.90;73.60;;;;;;5011874;28;20037;-76
2023/08/19 01:17:45;;;;;;;4.75;4.35;;;;;;;;;;5012640;28;20045;-76
2023/08/19 01:20:13;;;;;;;4.38;4.07;;;26.90;78.70;;;;;;5012140;28;20448;-76
2023/08/19 01:22:55;;;;;;;3.90;3.60;;;26.90;73.50;;;;;;5011844;28;20050;-76
2023/08/19 01:25:22;;;;;;;3.90;3.60;;;;;;;;;;5012048;28;20081;-76
2023/08/19 01:27:48;;;;;;;4.25;3.95;;;;;;;;;;5011818;28;20038;-76
2023/08/19 01:30:15;;;;;;;4.80;4.40;;;;;;;;;;5012036;28;20040;-76
2023/08/19 01:32:43;;;;;;;4.20;3.90;;;26.80;79.10;;;;;;5013267;28;20038;-76
2023/08/19 01:35:14;;;;;;;4.25;3.95;;;26.80;79.30;;;;;;5015785;28;20029;-76
2023/08/19 01:37:50;;;;;;;4.03;3.72;;;26.90;73.60;;;;;;5016020;28;20057;-76
2023/08/19 01:40:17;;;;;;;5.40;3.80;;;;;;;;;;5015848;28;20065;-76
2023/08/19 01:42:44;;;;;;;4.15;3.85;;;26.80;79.40;;;;;;5023058;28;20068;-76
2023/08/19 01:45:11;;;;;;;3.85;3.55;;;26.80;78.80;;;;;;5036107;28;20056;-76
2023/08/19 01:47:39;;;;;;;3.90;3.60;;;26.80;77.40;;;;;;5035582;28;20037;-76
2023/08/19 01:50:06;;;;;;;4.32;4.03;;;26.80;79.20;;;;;;5035284;28;20488;-76
2023/08/19 01:52:33;;;;;;;3.85;3.55;;;;;;;;;;5035027;28;20164;-76
2023/08/19 01:54:59;;;;;;;3.85;3.55;;;;;;;;;;5035216;28;20052;-76
2023/08/19 01:57:27;;;;;;;3.78;3.47;;;;;;;;;;5035284;28;20045;-76
2023/08/19 01:59:54;;;;;;;4.18;3.85;;;;;;;;;;5035465;28;20101;-76
2023/08/19 02:02:21;;;;;;;3.70;3.40;;;;;;;;;;5034961;28;20037;-76
2023/08/19 02:04:48;;;;;;;3.63;3.40;;;;;;;;;;5035004;28;20053;-76
2023/08/19 02:07:14;;;;;;;4.13;3.83;;;;;;;;;;5035346;28;20435;-76
2023/08/19 02:09:41;;;;;;;3.83;3.53;;;;;;;;;;5035247;28;20095;-76
2023/08/19 02:12:08;;;;;;;4.00;3.70;;;;;;;;;;5035237;28;20045;-76
2023/08/19 02:14:34;;;;;;;4.10;3.80;;;;;;;;;;5035330;28;20507;-76
2023/08/19 02:17:01;;;;;;;3.80;3.50;;;;;;;;;;5034814;28;20064;-76
2023/08/19 02:19:27;;;;;;;3.80;3.50;;;;;;;;;;5035112;28;20037;-76
2023/08/19 02:21:54;;;;;;;3.78;3.47;;;;;;;;;;5034706;28;20083;-76
2023/08/19 02:24:20;;;;;;;4.22;3.85;;;;;;;;;;5034983;28;20033;-77
2023/08/19 02:26:47;;;;;;;4.18;3.78;;;;;;;;;;5034942;28;20128;-76
2023/08/19 02:29:13;;;;;;;3.65;3.38;;;;;;;;;;5026631;28;20112;-77
2023/08/19 02:31:40;;;;;;;3.38;3.17;;;;;;;;;;5035072;28;20087;-76
2023/08/19 02:34:07;;;;;;;3.90;3.60;;;;;;;;;;5034711;28;20522;-76
2023/08/19 02:36:33;;;;;;;3.47;3.28;;;;;;;;;;5034247;28;20056;-76
2023/08/19 02:39:00;;;;;;;3.55;3.25;;;;;;;;;;5034556;28;20393;-76
2023/08/19 02:41:26;;;;;;;3.92;3.63;;;;;;;;;;5032896;28;20400;-76
2023/08/19 02:43:53;;;;;;;4.45;4.05;;;;;;;;;;5014152;28;20097;-76
2023/08/19 02:46:19;;;;;;;3.53;3.22;;;;;;;;;;5014756;28;20049;-76
2023/08/19 02:48:46;;;;;;;3.78;3.47;;;;;;;;;;5014274;28;20038;-76
2023/08/19 02:51:12;;;;;;;3.85;3.45;;;;;;;;;;5014655;28;20128;-76
2023/08/19 02:53:38;;;;;;;3.67;3.38;;;;;;;;;;5014568;28;20038;-76
2023/08/19 02:56:06;;;;;;;3.60;3.40;;;;;;;;;;5014235;28;20049;-76
2023/08/19 02:58:33;;;;;;;3.70;3.50;;;;;;;;;;5014503;28;20378;-76
2023/08/19 03:00:59;;;;;;;3.28;3.08;;;;;;;;;;5014178;28;20425;-76
2023/08/19 03:03:27;;;;;;;3.35;3.15;;;;;;;;;;5014232;28;20037;-76
2023/08/19 03:06:00;;;;;;;3.50;3.25;;;26.60;73.40;;;;;;5014075;28;20564;-76
2023/08/19 03:08:27;;;;;;;3.58;3.28;;;;;;;;;;5014440;28;20034;-76
2023/08/19 03:10:53;;;;;;;3.90;3.60;;;;;;;;;;5014452;28;20062;-76
2023/08/19 03:13:20;;;;;;;3.60;3.38;;;;;;;;;;5014246;28;20121;-76
2023/08/19 03:15:46;;;;;;;3.58;3.28;;;;;;;;;;5014121;28;20041;-76
2023/08/19 03:18:14;;;;;;;3.47;3.17;;;;;;;;;;5013979;28;20042;-76
2023/08/19 03:20:41;;;;;;;3.65;3.38;;;;;;;;;;5014123;28;20034;-76
2023/08/19 03:23:08;;;;;;;3.67;3.42;;;;;;;;;;5014149;28;20045;-76
2023/08/19 03:25:35;;;;;;;3.05;2.85;;;;;;;;;;5013685;28;20073;-76
2023/08/19 03:28:01;;;;;;;3.90;3.60;;;;;;;;;;5013538;28;20053;-76
2023/08/19 03:30:28;;;;;;;3.47;3.20;;;;;;;;;;5013643;28;20038;-76
2023/08/19 03:32:54;;;;;;;3.30;3.10;;;;;;;;;;5013942;28;20108;-76
2023/08/19 03:35:21;;;;;;;3.20;3.00;;;;;;;;;;5013540;28;20044;-76
2023/08/19 03:37:47;;;;;;;3.92;3.63;;;;;;;;;;5013777;28;20061;-76
2023/08/19 03:40:14;;;;;;;3.80;3.50;;;;;;;;;;5006179;28;20045;-76
2023/08/19 03:42:40;;;;;;;3.53;3.25;;;;;;;;;;5020660;28;20447;-76
2023/08/19 03:45:08;;;;;;;3.50;3.30;;;;;;;;;;5033194;28;20056;-76
2023/08/19 03:47:34;;;;;;;3.75;3.45;;;;;;;;;;5033461;28;20157;-76
2023/08/19 03:50:01;;;;;;;3.17;2.97;;;;;;;;;;5033116;28;20060;-76
2023/08/19 03:52:27;;;;;;;3.42;3.22;;;;;;;;;;5033493;28;20106;-76
2023/08/19 03:54:54;;;;;;;2.95;2.75;;;;;;;;;;5032815;28;20061;-76
2023/08/19 03:57:20;;;;;;;3.28;3.08;;;;;;;;;;5032834;28;20506;-76
2023/08/19 03:59:50;;;;;;;3.28;3.00;;;26.50;74.00;;;;;;5033002;28;20026;-76
2023/08/19 04:02:17;;;;;;;3.70;3.40;;;;;;;;;;5033037;28;20392;-76
2023/08/19 04:04:58;;;;;;;3.78;3.47;;;26.50;73.80;;;;;;5033169;28;20040;-77
2023/08/19 04:07:24;;;;;;;3.80;3.45;;;;;;;;;;5032788;28;20534;-76
2023/08/19 04:09:51;;;;;;;3.85;3.55;;;;;;;;;;5033452;28;20109;-76
2023/08/19 04:12:17;;;;;;;3.55;3.28;;;;;;;;;;5032662;28;20120;-76
2023/08/19 04:14:44;;;;;;;4.30;3.90;;;;;;;;;;5032938;28;20381;-76
2023/08/19 04:17:10;;;;;;;3.72;3.42;;;;;;;;;;5032762;28;20048;-76
2023/08/19 04:19:37;;;;;;;3.67;3.47;;;;;;;;;;5032847;28;20038;-76
2023/08/19 04:22:04;;;;;;;3.85;3.65;;;;;;;;;;5032552;28;20481;-77
2023/08/19 04:24:32;;;;;;;2.92;2.72;;;;;;;;;;5032448;28;20046;-76
2023/08/19 04:26:58;;;;;;;3.70;3.40;;;;;;;;;;5032651;28;20038;-76
2023/08/19 04:29:24;;;;;;;3.35;3.15;;;;;;;;;;5032457;28;20400;-76
2023/08/19 04:31:50;;;;;;;3.08;2.88;;;;;;;;;;5032340;28;20038;-76
2023/08/19 04:34:16;;;;;;;3.85;3.55;;;;;;;;;;5032349;28;20041;-76
2023/08/19 04:36:42;;;;;;;4.10;3.80;;;;;;;;;;5032763;28;20115;-76
2023/08/19 04:39:08;;;;;;;3.40;3.20;;;;;;;;;;5014710;28;20042;-76
2023/08/19 04:41:35;;;;;;;3.15;2.95;;;;;;;;;;5029695;28;20073;-76
2023/08/19 04:44:01;;;;;;;3.50;3.30;;;;;;;;;;5012489;28;20041;-76
2023/08/19 04:46:27;;;;;;;3.70;3.40;;;;;;;;;;5012417;28;20092;-82
2023/08/19 04:48:53;;;;;;;3.50;3.20;;;;;;;;;;5017404;28;20038;-74
2023/08/19 04:51:19;;;;;;;3.40;3.10;;;;;;;;;;4979293;28;20034;-73
2023/08/19 04:53:44;;;;;;;3.88;3.58;;;;;;;;;;5012158;28;20419;-72
2023/08/19 04:56:10;;;;;;;3.00;2.80;;;;;;;;;;5012175;28;20069;-73
2023/08/19 04:58:36;;;;;;;3.72;3.50;;;;;;;;;;5012116;28;20489;-72
2023/08/19 05:01:02;;;;;;;3.50;3.30;;;;;;;;;;5012146;28;20124;-73
2023/08/19 05:03:29;;;;;;;3.95;3.65;;;;;;;;;;5011983;28;20112;-72
2023/08/19 05:05:55;;;;;;;3.10;2.90;;;;;;;;;;5012535;28;20033;-73
2023/08/19 05:08:21;;;;;;;3.22;3.03;;;;;;;;;;5011443;28;20059;-72
2023/08/19 05:10:48;;;;;;;3.28;3.08;;;;;;;;;;5011960;28;20062;-71
2023/08/19 05:13:14;;;;;;;3.85;3.53;;;;;;;;;;5011891;28;20038;-72
2023/08/19 05:15:41;;;;;;;7.30;3.45;;;;;;;;;;5011826;28;20038;-72
2023/08/19 05:18:07;;;;;;;4.85;3.83;;;;;;;;;;5012110;28;20049;-72
2023/08/19 05:20:34;;;;;;;3.97;3.67;;;;;;;;;;5011992;28;20034;-73
2023/08/19 05:23:00;;;;;;;3.80;3.42;;;;;;;;;;5012079;28;20060;-72
2023/08/19 05:25:29;;;;;;;3.70;3.40;;;;;;;;;;5012001;28;20038;-72
2023/08/19 05:27:57;;;;;;;5.13;4.00;;;;;;;;;;5012023;28;20406;-72
2023/08/19 05:30:24;;;;;;;5.20;3.92;;;;;;;;;;5011977;28;20045;-72
2023/08/19 05:32:50;;;;;;;4.70;4.20;;;;;;;;;;5011611;28;20057;-73
2023/08/19 05:35:17;;;;;;;5.25;3.97;;;;;;;;;;5012166;28;20108;-72
2023/08/19 05:37:43;;;;;;;4.82;4.32;;;;;;;;;;5011514;28;20562;-73
2023/08/19 05:40:10;;;;;;;4.40;4.00;;;;;;;;;;5011420;28;20034;-71
2023/08/19 05:42:36;;;;;;;4.90;3.97;;;;;;;;;;5018040;28;20053;-71
2023/08/19 05:45:02;;;;;;;4.68;4.18;;;;;;;;;;5031588;28;20090;-71
2023/08/19 05:47:29;;;;;;;5.85;4.50;;;;;;;;;;5031595;28;20588;-72
2023/08/19 05:49:56;;;;;;;5.05;4.55;;;;;;;;;;5031665;28;20187;-71
2023/08/19 05:52:22;;;;;;;4.90;4.40;;;;;;;;;;5031420;28;20052;-71
2023/08/19 05:54:49;;;;;;;4.47;4.07;;;26.40;80.90;;;;;;5031401;28;20435;-71
2023/08/19 05:57:16;;;;;;;5.63;4.32;;;;;;;;;;5031272;28;20041;-71
2023/08/19 05:59:42;;;;;;;4.82;3.65;;;;;;;;;;5031189;28;20030;-71
2023/08/19 06:02:09;;;;;;;4.90;4.40;;;;;;;;;;5031555;28;20083;-71
2023/08/19 06:04:35;;;;;;;4.95;4.22;;;;;;;;;;5031056;28;20034;-71
2023/08/19 06:07:02;;;;;;;4.05;3.75;;;;;;;;;;5031355;28;20038;-71
2023/08/19 06:09:29;;;;;;;4.50;4.20;;;;;;;;;;5031088;28;20504;-71
2023/08/19 06:11:55;;;;;;;5.32;4.13;;;;;;;;;;5031393;28;20041;-71
2023/08/19 06:14:22;;;;;;;4.65;4.22;;;;;;;;;;5031434;28;20427;-71
2023/08/19 06:16:49;;;;;;;4.82;4.22;;;;;;;;;;5031323;28;20419;-71
2023/08/19 06:19:15;;;;;;;4.47;3.42;;;;;;;;;;5033599;28;20099;-72
2023/08/19 06:21:42;;;;;;;5.07;4.30;;;;;;;;;;5034719;28;20045;-71
2023/08/19 06:24:08;;;;;;;3.92;3.63;;;;;;;;;;5034772;28;20045;-71
2023/08/19 06:26:35;;;;;;;4.45;3.80;;;;;;;;;;5034813;28;20510;-71
2023/08/19 06:29:02;;;;;;;4.00;3.60;;;;;;;;;;5034861;28;20029;-71
2023/08/19 06:31:28;;;;;;;3.75;3.45;;;;;;;;;;5035329;28;20101;-71
2023/08/19 06:33:55;;;;;;;4.05;3.72;;;;;;;;;;5034668;28;20171;-71
2023/08/19 06:36:28;;;;;;;3.53;3.30;;;26.30;74.90;;;;;;5034408;28;20168;-72
2023/08/19 06:39:07;;;;;;;4.40;4.00;;;26.30;74.60;;;;;;5034495;28;20473;-71
2023/08/19 06:41:35;;;;;;;3.40;3.10;;;;;;;;;;5032113;28;20471;-72
2023/08/19 06:44:03;;;;;;;4.20;3.80;;;26.30;80.50;;;;;;5014612;28;20042;-71
2023/08/19 06:46:31;;;;;;;4.97;3.50;;;26.30;80.50;;;;;;5014806;28;20042;-71
2023/08/19 06:48:57;;;;;;;3.67;3.38;;;;;;;;;;5014460;28;20030;-72
2023/08/19 06:51:25;;;;;;;3.58;3.28;;;;;;;;;;5014710;28;20384;-72
2023/08/19 06:53:52;;;;;;;3.45;3.15;;;;;;;;;;5014704;28;20113;-73
2023/08/19 06:56:37;;;;;;;3.83;3.53;;;26.30;75.00;;;;;;5014242;28;20053;-71
2023/08/19 06:59:14;;;;;;;3.70;3.40;;;26.30;80.80;;;;;;5014888;28;20030;-72
2023/08/19 07:02:01;;;;;;;3.67;3.38;;;26.30;80.70;;;;;;5012598;28;20069;-73
2023/08/19 07:04:29;;;;;;;4.10;3.80;;;;;;;;;;5014226;28;20068;-73
2023/08/19 07:07:00;;;;;;;3.72;3.40;;;26.30;75.10;;;;;;5014115;28;20040;-73
2023/08/19 07:09:27;;;;;;;3.85;3.30;;;26.30;80.80;;;;;;5014358;28;20045;-72
2023/08/19 07:11:55;;;;;;;4.28;3.88;;;26.40;78.20;;;;;;5014308;28;20088;-72
2023/08/19 07:14:23;;;;;;;3.30;3.00;;;26.30;80.80;;;;;;5014200;28;20037;-72
2023/08/19 07:16:50;;;;;;;4.93;3.40;;;26.30;80.70;;;;;;5014121;28;20512;-72
2023/08/19 07:19:26;;;;;;;3.88;3.58;;;26.30;80.80;;;;;;5014179;28;20026;-72
2023/08/19 07:21:53;;;;;;;3.88;3.58;;;;;;;;;;5014020;28;20030;-72
2023/08/19 07:24:19;;;;;;;3.72;3.40;;;;;;;;;;5014098;28;20065;-71
2023/08/19 07:26:47;;;;;;;4.47;3.28;;;26.30;80.80;;;;;;5013740;28;20052;-74
2023/08/19 07:29:14;;;;;;;3.53;3.22;;;;;;;;;;5014526;28;20083;-72
2023/08/19 07:31:41;;;;;;;3.78;3.38;;;26.30;80.20;;;;;;5013367;28;20042;-72
2023/08/19 07:34:07;;;;;;;4.90;3.60;;;;;;;;;;5013498;28;20033;-72
2023/08/19 07:36:34;;;;;;;4.15;3.38;;;;;;;;;;5013756;28;20446;-72
2023/08/19 07:39:01;;;;;;;5.28;3.53;;;;;;;;;;5013844;28;20408;-72
2023/08/19 07:41:27;;;;;;;4.13;3.80;;;;;;;;;;5014712;28;20045;-73
2023/08/19 07:43:54;;;;;;;3.70;3.40;;;;;;;;;;5033521;28;20041;-73
2023/08/19 07:46:20;;;;;;;5.05;3.38;;;;;;;;;;5033423;28;20403;-72
2023/08/19 07:48:47;;;;;;;3.65;3.30;;;;;;;;;;5033081;28;20030;-72
2023/08/19 07:51:13;;;;;;;4.90;3.38;;;;;;;;;;5033128;28;20041;-72
2023/08/19 07:53:40;;;;;;;4.03;3.70;;;;;;;;;;5033282;28;20403;-72
2023/08/19 07:56:06;;;;;;;3.28;2.97;;;;;;;;;;5033506;28;20045;-72
2023/08/19 07:58:33;;;;;;;3.97;3.60;;;;;;;;;;5032943;28;20091;-72
2023/08/19 08:01:00;;;;;;;3.40;3.10;;;;;;;;;;5032824;28;20037;-72
2023/08/19 08:03:26;;;;;;;3.95;3.22;;;;;;;;;;5032946;28;20037;-72
2023/08/19 08:05:53;;;;;;;3.67;3.38;;;;;;;;;;5032793;28;20037;-72
2023/08/19 08:08:19;;;;;;;3.90;3.53;;;;;;;;;;5032865;28;20437;-72
2023/08/19 08:10:46;;;;;;;3.75;3.45;;;;;;;;;;5033045;28;20104;-72
2023/08/19 08:13:12;;;;;;;3.78;3.20;;;;;;;;;;5032587;28;20141;-72
2023/08/19 08:15:39;;;;;;;4.25;3.63;;;;;;;;;;5032537;28;20052;-72
2023/08/19 08:18:05;;;;;;;4.53;4.13;;;;;;;;;;5032583;28;20041;-72
2023/08/19 08:20:32;;;;;;;3.95;3.55;;;;;;;;;;5032314;28;20076;-72
2023/08/19 08:22:58;;;;;;;4.45;4.05;;;;;;;;;;5032804;28;20446;-72
2023/08/19 08:25:26;;;;;;;5.68;3.70;;;;;;;;;;5032857;28;20044;-72
2023/08/19 08:27:52;;;;;;;3.25;2.78;;;;;;;;;;5032564;28;20459;-71
2023/08/19 08:30:18;;;;;;;4.07;3.50;;;;;;;;;;5032513;28;20037;-73
2023/08/19 08:32:46;;;;;;;4.90;3.58;;;;;;;;;;5034819;28;20037;-72
2023/08/19 08:35:12;;;;;;;6.60;4.13;;;;;;;;;;5024228;28;20037;-73
2023/08/19 08:37:38;;;;;;;4.38;3.97;;;;;;;;;;5032195;28;20071;-73
2023/08/19 08:40:04;;;;;;;3.63;3.33;;;;;;;;;;5032188;28;20473;-73
2023/08/19 08:42:31;;;;;;;4.20;3.80;;;26.50;78.50;;;;;;5020939;28;20141;-73
2023/08/19 08:44:58;;;;;;;4.00;3.30;;;26.50;81.60;;;;;;5012771;28;20041;-74
2023/08/19 08:47:25;;;;;;;3.88;3.47;;;26.60;82.00;;;;;;5012319;28;20042;-73
2023/08/19 08:49:53;;;;;;;4.30;3.75;;;26.70;82.00;;;;;;5012338;28;20026;-73
2023/08/19 08:52:20;;;;;;;4.43;3.85;;;26.60;81.90;;;;;;5012182;28;20038;-72
2023/08/19 08:54:46;;;;;;;3.78;3.47;;;;;;;;;;5012756;28;20446;-74
2023/08/19 08:57:16;;;;;;;4.70;3.65;;;;;;;;;;5012161;28;20049;-73
2023/08/19 08:59:42;;;;;;;4.03;3.63;;;;;;;;;;5012178;28;20128;-73
2023/08/19 09:02:13;;;;;;;5.15;3.95;;;26.70;82.00;;;;;;5012063;28;20053;-73
2023/08/19 09:04:40;;;;;;;3.35;3.10;;;26.70;81.90;;;;;;5012219;28;20044;-73
2023/08/19 09:07:12;;;;;;;4.28;3.70;;;26.70;76.00;;;;;;5012173;28;20048;-72
2023/08/19 09:09:42;;;;;;;3.78;3.47;;;26.70;81.70;;;;;;5012145;28;20361;-71
2023/08/19 09:12:11;;;;;;;3.80;3.42;;;26.80;81.80;;;;;;5011979;28;20412;-71
2023/08/19 09:14:43;;;;;;;4.43;3.63;;;26.70;81.70;;;;;;5011980;28;20396;-72
2023/08/19 09:17:17;;;;;;;3.90;3.50;;;26.80;76.10;;;;;;5011803;28;20116;-71
2023/08/19 09:20:00;;;;;;;3.65;3.35;;;26.80;80.80;;;;;;5010386;28;20044;-72
2023/08/19 09:22:26;;;;;;;4.32;3.92;;;;;;;;;;5012578;28;20168;-71
2023/08/19 09:24:53;;;;;;;4.68;3.47;;;;;;;;;;5011870;28;20034;-71
2023/08/19 09:27:31;;;;;;;4.55;3.58;;;26.90;82.20;;;;;;5012029;28;20060;-71
2023/08/19 09:30:00;;;;;;;3.47;3.17;;;26.90;76.60;;;;;;5012072;28;20032;-71
2023/08/19 09:32:28;;;;;;;4.33;3.83;;;26.80;82.40;;;;;;5011882;28;20044;-72
2023/08/19 09:35:02;;;;;;;5.00;3.53;;;26.80;76.90;;;;;;5011928;28;20022;-72
2023/08/19 09:37:28;;;;;;;4.75;4.00;;;;;;;;;;5011821;28;20125;-71
2023/08/19 09:39:55;;;;;;;4.05;3.63;;;;;;;;;;5012027;28;20038;-72
2023/08/19 09:42:21;;;;;;;3.92;3.08;;;;;;;;;;5016271;28;20421;-71
2023/08/19 09:44:48;;;;;;;3.80;3.40;;;;;;;;;;5031678;28;20038;-71
2023/08/19 09:47:14;;;;;;;4.50;3.00;;;;;;;;;;5031426;28;20038;-71
2023/08/19 09:49:41;;;;;;;3.15;2.85;;;;;;;;;;5032128;28;20435;-71
2023/08/19 09:52:17;;;;;;;3.15;2.85;;;27.20;82.40;;;;;;5031476;28;20183;-71
2023/08/19 09:54:52;;;;;;;3.33;2.60;;;27.20;82.20;;;;;;5034544;28;20040;-71
2023/08/19 09:57:19;;;;;;;3.78;3.40;;;;;;;;;;5035462;28;20045;-71
2023/08/19 09:59:45;;;;;;;2.90;2.65;;;;;;;;;;5035325;28;20037;-71
2023/08/19 10:02:12;;;;;;;2.85;2.55;;;27.30;82.40;;;;;;5035261;28;20046;-71
2023/08/19 10:04:38;;;;;;;3.60;2.72;;;;;;;;;;5035061;28;20025;-71
2023/08/19 10:07:08;;;;;;;4.15;3.08;;;27.30;81.70;;;;;;5017298;28;20064;-71
2023/08/19 10:09:38;;;;;;;3.38;2.60;;;27.30;82.40;;;;;;5035049;28;20079;-71
2023/08/19 10:12:04;;;;;;;4.30;3.33;;;;;;;;;;5034878;28;20040;-71
2023/08/19 10:14:31;;;;;;;3.47;2.85;;;27.30;82.40;;;;;;5034992;28;20041;-71
2023/08/19 10:17:01;;;;;;;3.35;3.05;;;27.30;82.70;;;;;;5034746;28;20042;-71
2023/08/19 10:19:31;;;;;;;3.33;2.70;;;27.30;82.70;;;;;;5035323;28;20042;-71
2023/08/19 10:21:59;;;;;;;5.65;3.45;;;27.30;82.90;;;;;;5034860;28;20176;-71
2023/08/19 10:24:25;;;;;;;2.60;2.22;;;;;;;;;;5034817;28;20029;-71
2023/08/19 10:26:51;;;;;;;2.45;2.25;;;;;;;;;;5034757;28;20037;-71
2023/08/19 10:29:17;;;;;;;3.78;2.92;;;;;;;;;;5034774;28;20435;-74
2023/08/19 10:31:43;;;;;;;3.97;3.08;;;;;;;;;;5034796;28;20033;-72
2023/08/19 10:34:28;;;;;;;3.38;2.75;;;27.30;77.20;;;;;;5034685;28;20102;-73
2023/08/19 10:37:08;;;;;;;4.50;2.95;;;27.30;77.70;;;;;;5034532;28;20045;-72
2023/08/19 10:39:35;;;;;;;4.22;3.15;;;;;;;;;;5034433;28;20064;-72
2023/08/19 10:42:01;;;;;;;5.97;3.08;;;;;;;;;;5028250;28;20069;-71
2023/08/19 10:44:33;;;;;;;5.57;3.92;;;27.40;83.40;;;;;;5014617;28;20519;-71
2023/08/19 10:47:10;;;;;;;4.13;3.00;;;27.40;77.50;;;;;;5015253;28;20037;-72
2023/08/19 10:49:37;;;;;;;3.65;2.70;;;;;;;;;;5014389;28;20076;-73
2023/08/19 10:52:05;;;;;;;6.15;3.72;;;;;;;;;;5014702;28;20396;-74
2023/08/19 10:54:39;;;;;;;5.55;3.63;;;27.40;82.80;;;;;;5014644;28;20052;-73
2023/08/19 10:57:12;;;;;;;9.15;3.35;;;27.40;77.20;;;;;;5014387;28;20125;-72
2023/08/19 10:59:40;;;;;;;4.95;3.17;;;27.40;82.40;;;;;;5014259;28;20065;-72
2023/08/19 11:02:08;;;;;;;4.75;2.80;;;27.40;79.20;;;;;;5014508;28;20022;-73
2023/08/19 11:04:38;;;;;;;3.78;2.75;;;27.40;81.80;;;;;;5013742;28;20104;-72
2023/08/19 11:07:07;;;;;;;6.35;3.13;;;27.50;81.90;;;;;;5013957;28;20481;-73
2023/08/19 11:09:33;;;;;;;7.07;3.17;;;;;;;;;;5014233;28;20030;-73
2023/08/19 11:12:00;;;;;;;4.28;2.63;;;;;;;;;;5014032;28;20042;-72
2023/08/19 11:14:26;;;;;;;5.75;3.17;;;;;;;;;;5014023;28;20045;-74
2023/08/19 11:16:55;;;;;;;7.85;2.60;;;27.50;81.60;;;;;;5014643;28;20065;-73
2023/08/19 11:19:22;;;;;;;6.20;2.42;;;27.50;78.90;;;;;;5013872;28;20503;-72
2023/08/19 11:21:48;;;;;;;6.78;2.50;;;;;;;;;;5013888;28;20109;-73
2023/08/19 11:24:14;;;;;;;5.30;2.22;;;;;;;;;;5014127;28;20481;-73
2023/08/19 11:26:45;;;;;;;4.78;1.88;;;27.50;80.20;;;;;;5013964;28;20052;-73
2023/08/19 11:29:11;;;;;;;6.03;1.55;;;;;;;;;;5013915;28;20563;-73
2023/08/19 11:31:38;;;;;;;9.15;1.73;;;27.50;78.70;;;;;;5013793;28;20117;-73
2023/08/19 11:34:09;;;;;;;4.13;1.50;;;27.20;71.80;;;;;;5013908;28;20029;-72
2023/08/19 11:36:36;;;;;;;4.57;1.48;;;;;;;;;;5013912;28;20069;-73
2023/08/19 11:39:04;;;;;;;4.22;1.67;;;;;;;;;;5013844;28;20034;-76
2023/08/19 11:41:31;;;;;;;3.58;1.23;;;27.70;77.30;;;;;;5013709;28;20088;-76
2023/08/19 11:43:58;;;;;;;3.83;1.10;;;;;;;;;;5031474;28;20463;-74
2023/08/19 11:46:29;;;;;;;2.70;0.75;;;27.30;70.50;;;;;;5033586;28;20037;-73
2023/08/19 11:48:57;;;;;;;8.45;1.20;;;27.30;74.20;;;;;;5033181;28;20481;-74
2023/08/19 11:51:23;;;;;;;2.45;0.95;;;;;;;;;;5016029;28;20034;-74
2023/08/19 11:53:52;;;;;;;3.90;1.02;;;27.30;76.10;;;;;;5033319;28;20391;-74
2023/08/19 11:56:18;;;;;;;5.28;1.20;;;;;;;;;;5033248;28;20189;-74
2023/08/19 11:58:49;;;;;;;3.22;0.88;;;27.30;70.50;;;;;;5033146;28;20040;-72
2023/08/19 12:01:19;;;;;;;2.95;0.90;;;27.30;75.70;;;;;;5033050;28;20439;-74
2023/08/19 12:03:47;;;;;;;4.10;0.90;;;27.30;76.50;;;;;;5033426;28;20064;-74
2023/08/19 12:06:13;;;;;;;4.60;1.20;;;;;;;;;;5032702;28;20033;-74
2023/08/19 12:08:41;;;;;;;4.47;1.23;;;27.20;76.50;;;;;;5032807;28;20064;-74
2023/08/19 12:11:09;;;;;;;6.00;1.30;;;27.20;75.70;;;;;;5032854;28;20030;-74
2023/08/19 12:13:35;;;;;;;3.47;1.02;;;;;;;;;;5033048;28;20049;-74
2023/08/19 12:16:03;;;;;;;7.55;1.58;;;27.20;72.30;;;;;;5032661;28;20100;-74
2023/08/19 12:18:33;;;;;;;6.88;1.40;;;27.10;69.20;;;;;;5032679;28;20651;-74
2023/08/19 12:21:02;;;;;;;5.30;1.35;;;27.10;75.30;;;;;;5032788;28;20033;-73
2023/08/19 12:23:29;;;;;;;5.32;1.10;;;;;;;;;;5032686;28;20044;-75
2023/08/19 12:25:56;;;;;;;5.13;1.15;;;27.10;76.00;;;;;;5032529;28;20057;-74
2023/08/19 12:28:23;;;;;;;5.47;1.35;;;;;;;;;;5032398;28;20048;-73
2023/08/19 12:30:50;;;;;;;8.00;1.30;;;;;;;;;;5032746;28;20037;-74
2023/08/19 12:33:16;;;;;;;7.22;1.35;;;27.10;76.20;;;;;;5032092;28;20041;-75
2023/08/19 12:35:44;;;;;;;5.25;1.23;;;;;;;;;;5032128;28;20362;-74
2023/08/19 12:38:13;;;;;;;4.22;1.42;;;27.20;77.10;;;;;;5032244;28;20120;-74
2023/08/19 12:40:40;;;;;;;5.22;1.10;;;;;;;;;;5032121;28;20047;-74
2023/08/19 12:43:06;;;;;;;6.60;1.35;;;;;;;;;;5016922;28;20097;-74
2023/08/19 12:45:33;;;;;;;3.05;1.30;;;;;;;;;;5012554;28;20392;-74
2023/08/19 12:47:59;;;;;;;3.72;1.17;;;;;;;;;;5012199;28;20048;-74
2023/08/19 12:50:26;;;;;;;5.65;1.15;;;;;;;;;;5012324;28;20037;-74
2023/08/19 12:52:52;;;;;;;6.32;1.48;;;;;;;;;;5012057;28;20535;-74
2023/08/19 12:55:19;;;;;;;9.55;2.05;;;;;;;;;;5012276;28;20447;-74
2023/08/19 12:57:46;;;;;;;3.63;1.40;;;;;;;;;;5011905;28;20128;-74
2023/08/19 13:00:13;;;;;;;5.53;1.58;;;;;;;;;;5012423;28;20041;-74
2023/08/19 13:02:40;;;;;;;4.07;1.00;;;27.00;74.00;;;;;;5011721;28;20033;-74
2023/08/19 13:05:07;;;;;;;3.90;1.30;;;27.00;74.50;;;;;;5012244;28;20054;-74
2023/08/19 13:07:33;;;;;;;6.32;1.45;;;;;;;;;;5012167;28;20037;-74
2023/08/19 13:10:00;;;;;;;6.57;1.48;;;;;;;;;;5012181;28;20041;-73
2023/08/19 13:12:27;;;;;;;5.20;1.50;;;27.10;73.50;;;;;;5012227;28;20045;-73
2023/08/19 13:14:53;;;;;;;6.50;1.52;;;;;;;;;;5012114;28;20032;-74
2023/08/19 13:17:19;;;;;;;8.43;1.63;;;;;;;;;;5011763;28;20096;-74
2023/08/19 13:19:45;;;;;;;5.28;1.45;;;;;;;;;;5011895;28;20037;-75
2023/08/19 13:22:11;;;;;;;6.20;1.80;;;;;;;;;;5011931;28;20037;-75
2023/08/19 13:24:37;;;;;;;7.05;1.45;;;;;;;;;;5011868;28;20081;-74
2023/08/19 13:27:03;;;;;;;8.95;1.77;;;;;;;;;;5011644;28;20041;-75
2023/08/19 13:29:29;;;;;;;6.82;2.13;;;;;;;;;;5011748;28;20401;-74
2023/08/19 13:31:55;;;;;;;7.82;2.17;;;;;;;;;;5011631;28;20045;-75
2023/08/19 13:34:22;;;;;;;11.32;2.10;;;;;;;;;;5011438;28;20045;-75
2023/08/19 13:36:48;;;;;;;11.45;2.38;;;;;;;;;;5011706;28;20177;-75
2023/08/19 13:39:15;;;;;;;9.55;2.47;;;;;;;;;;5011877;28;20093;-79
2023/08/19 13:41:41;;;;;;;6.03;1.88;;;;;;;;;;5011670;28;20115;-75
2023/08/19 13:44:08;;;;;;;9.27;2.20;;;;;;;;;;5030883;28;20045;-75
2023/08/19 13:46:34;;;;;;;10.85;2.40;;;;;;;;;;5031274;28;20043;-75
2023/08/19 13:49:01;;;;;;;12.40;3.00;;;;;;;;;;5013928;28;20029;-75
2023/08/19 13:51:28;;;;;;;10.02;2.20;;;;;;;;;;5031564;28;20038;-74
2023/08/19 13:53:54;;;;;;;11.70;2.40;;;;;;;;;;5031393;28;20101;-75
2023/08/19 13:56:21;;;;;;;13.43;2.70;;;;;;;;;;5031701;28;20047;-74
2023/08/19 13:58:47;;;;;;;7.85;2.03;;;;;;;;;;5031534;28;20069;-75
2023/08/19 14:01:15;;;;;;;10.57;2.45;;;;;;;;;;5030986;28;20510;-75
2023/08/19 14:03:41;;;;;;;9.13;2.15;;;;;;;;;;5031101;28;20052;-75
2023/08/19 14:06:08;;;;;;;11.27;2.40;;;;;;;;;;5031402;28;20030;-74
2023/08/19 14:08:36;;;;;;;9.93;2.13;;;;;;;;;;5031492;28;20119;-75
2023/08/19 14:11:03;;;;;;;6.93;1.92;;;;;;;;;;5031151;28;20043;-74